createdAt,value
2022-07-30T00:01:26.554Z,96563.28
2022-07-30T00:03:55.545Z,96533.19
2022-07-30T00:06:24.266Z,96554.09
2022-07-30T00:08:52.565Z,96521.91
2022-07-30T00:11:25.923Z,96516.59
2022-07-30T00:13:57.766Z,96513.41
2022-07-30T00:16:26.142Z,96553.16
2022-07-30T00:18:54.438Z,96536.78
2022-07-30T00:21:38.719Z,96530.88
2022-07-30T00:24:08.948Z,96536.41
2022-07-30T00:26:37.448Z,96517.56
2022-07-30T00:29:07.963Z,96532.38
2022-07-30T00:31:36.258Z,96520.28
2022-07-30T00:34:04.646Z,96498.41
2022-07-30T00:36:33.407Z,96500.47
2022-07-30T00:39:01.702Z,96498.03
2022-07-30T00:41:30.069Z,96490.69
2022-07-30T00:43:58.430Z,96494.78
2022-07-30T00:46:28.087Z,96529.94
2022-07-30T00:48:57.445Z,96458.81
2022-07-30T00:51:25.740Z,96561.47
2022-07-30T00:53:54.030Z,96514.00
2022-07-30T00:56:22.717Z,96478.88
2022-07-30T00:58:51.114Z,96468.22
2022-07-30T01:01:19.427Z,96453.47
2022-07-30T01:03:49.113Z,96488.84
2022-07-30T01:06:17.459Z,96509.13
2022-07-30T01:08:45.661Z,96532.84
2022-07-30T01:11:14.285Z,96523.00
2022-07-30T01:13:44.180Z,96510.13
2022-07-30T01:16:12.880Z,96513.63
2022-07-30T01:18:59.987Z,96483.94
2022-07-30T01:21:38.881Z,96498.47
2022-07-30T01:24:26.307Z,96526.28
2022-07-30T01:26:57.090Z,96364.38
2022-07-30T01:29:28.903Z,96548.78
2022-07-30T01:32:00.120Z,96558.19
2022-07-30T01:34:32.609Z,96511.56
2022-07-30T01:37:02.091Z,96527.53
2022-07-30T01:39:31.724Z,96684.91
2022-07-30T01:42:05.362Z,96547.72
2022-07-30T01:44:34.239Z,96515.25
2022-07-30T01:47:03.984Z,96538.31
2022-07-30T01:49:35.960Z,96507.06
2022-07-30T01:52:05.956Z,96504.59
2022-07-30T01:54:36.430Z,96470.25
2022-07-30T01:57:07.690Z,96508.22
2022-07-30T01:59:39.076Z,96482.03
2022-07-30T02:02:07.520Z,96516.38
2022-07-30T02:04:36.048Z,96544.22
2022-07-30T02:07:09.931Z,96548.28
2022-07-30T02:09:47.963Z,96540.50
2022-07-30T02:12:31.138Z,96499.94
2022-07-30T02:15:12.852Z,96507.53
2022-07-30T02:17:46.106Z,96511.44
2022-07-30T02:20:17.827Z,96540.91
2022-07-30T02:22:48.430Z,96534.34
2022-07-30T02:25:21.557Z,96527.56
2022-07-30T02:27:56.259Z,96523.66
2022-07-30T02:30:28.908Z,96512.81
2022-07-30T02:33:03.915Z,96529.78
2022-07-30T02:35:34.019Z,96516.66
2022-07-30T02:38:03.447Z,96542.19
2022-07-30T02:40:32.996Z,96545.88
2022-07-30T02:43:03.689Z,96548.09
2022-07-30T02:45:32.524Z,96493.63
2022-07-30T02:48:06.582Z,96521.28
2022-07-30T02:50:35.731Z,96643.31
2022-07-30T02:53:06.763Z,96546.53
2022-07-30T02:55:37.639Z,96424.22
2022-07-30T02:58:11.728Z,96500.31
2022-07-30T03:00:40.919Z,96471.97
2022-07-30T03:03:11.364Z,96536.84
2022-07-30T03:05:41.026Z,96556.41
2022-07-30T03:08:10.128Z,96525.38
2022-07-30T03:10:39.690Z,96543.56
2022-07-30T03:13:11.183Z,96422.81
2022-07-30T03:15:45.228Z,96506.59
2022-07-30T03:18:15.862Z,96526.63
2022-07-30T03:20:48.606Z,96560.56
2022-07-30T03:23:19.964Z,96523.44
2022-07-30T03:25:55.828Z,96534.03
2022-07-30T03:28:26.447Z,96563.44
2022-07-30T03:30:55.393Z,96535.09
2022-07-30T03:33:24.806Z,96549.91
2022-07-30T03:36:08.529Z,96570.41
2022-07-30T03:38:39.013Z,96560.94
2022-07-30T03:41:09.228Z,96557.28
2022-07-30T03:43:41.546Z,96585.47
2022-07-30T03:46:13.038Z,96590.75
2022-07-30T03:48:45.990Z,96604.16
2022-07-30T03:51:14.446Z,96598.91
2022-07-30T03:53:44.661Z,96590.47
2022-07-30T03:56:34.806Z,96594.38
2022-07-30T03:59:10.380Z,96601.69
2022-07-30T04:01:41.631Z,96599.28
2022-07-30T04:04:33.391Z,96612.53
2022-07-30T04:07:02.003Z,96620.25
2022-07-30T04:09:30.645Z,96525.38
2022-07-30T04:12:09.269Z,96587.03
2022-07-30T04:14:44.221Z,96600.56
2022-07-30T04:17:18.717Z,96625.28
2022-07-30T04:19:53.473Z,96634.31
2022-07-30T04:22:29.487Z,96481.84
2022-07-30T04:24:59.194Z,96638.72
2022-07-30T04:27:28.127Z,96617.59
2022-07-30T04:29:58.202Z,96658.94
2022-07-30T04:32:26.492Z,96600.59
2022-07-30T04:35:04.242Z,96627.31
2022-07-30T04:37:58.038Z,96637.22
2022-07-30T04:40:27.180Z,96639.00
2022-07-30T04:42:55.540Z,96660.97
2022-07-30T04:45:25.551Z,96658.50
2022-07-30T04:47:57.929Z,96680.22
2022-07-30T04:51:02.382Z,96648.91
2022-07-30T04:53:33.834Z,96632.56
2022-07-30T04:56:04.607Z,96529.66
2022-07-30T04:58:34.880Z,96651.03
2022-07-30T05:01:04.988Z,96668.16
2022-07-30T05:03:35.833Z,96649.44
2022-07-30T05:06:04.433Z,96689.16
2022-07-30T05:08:37.767Z,96629.41
2022-07-30T05:11:13.161Z,96624.56
2022-07-30T05:13:46.361Z,96532.22
2022-07-30T05:16:18.125Z,96628.00
2022-07-30T05:18:46.633Z,96643.03
2022-07-30T05:21:15.064Z,96621.47
2022-07-30T05:23:50.078Z,96628.44
2022-07-30T05:26:39.756Z,96584.50
2022-07-30T05:29:19.719Z,96671.78
2022-07-30T05:32:12.687Z,96641.50
2022-07-30T05:34:41.138Z,96597.22
2022-07-30T05:37:09.911Z,96662.03
2022-07-30T05:39:58.885Z,96683.31
2022-07-30T05:42:47.482Z,96635.28
2022-07-30T05:45:15.714Z,96613.41
2022-07-30T05:47:45.373Z,96657.63
2022-07-30T05:50:14.279Z,96603.22
2022-07-30T05:52:42.893Z,96653.38
2022-07-30T05:55:31.207Z,96648.66
2022-07-30T05:58:39.046Z,96692.47
2022-07-30T06:01:07.526Z,96670.59
2022-07-30T06:03:38.281Z,96622.88
2022-07-30T06:06:37.700Z,96633.09
2022-07-30T06:09:06.613Z,96616.31
2022-07-30T06:11:34.903Z,96657.66
2022-07-30T06:14:03.320Z,96663.81
2022-07-30T06:16:31.810Z,96658.06
2022-07-30T06:19:01.475Z,96603.16
2022-07-30T06:22:05.979Z,96729.72
2022-07-30T06:24:30.381Z,96644.53
2022-07-30T06:27:09.798Z,96662.91
2022-07-30T06:29:38.525Z,96529.53
2022-07-30T06:32:07.890Z,96647.53
2022-07-30T06:34:38.324Z,96673.78
2022-07-30T06:37:06.742Z,96665.66
2022-07-30T06:39:57.402Z,96657.88
2022-07-30T06:42:44.510Z,96679.19
2022-07-30T06:45:41.894Z,96684.34
2022-07-30T06:48:31.411Z,96670.13
2022-07-30T06:51:03.021Z,96581.78
2022-07-30T06:53:31.677Z,96669.88
2022-07-30T06:56:22.733Z,96708.59
2022-07-30T06:58:59.413Z,96707.97
2022-07-30T07:01:46.399Z,96665.63
2022-07-30T07:04:14.988Z,96657.34
2022-07-30T07:06:44.544Z,96672.28
2022-07-30T07:09:16.949Z,96682.59
2022-07-30T07:12:06.069Z,96701.28
2022-07-30T07:14:34.405Z,96630.53
2022-07-30T07:17:02.990Z,96653.50
2022-07-30T07:20:00.316Z,96651.13
2022-07-30T07:22:33.783Z,96688.47
2022-07-30T07:25:02.053Z,96701.16
2022-07-30T07:27:34.093Z,96664.19
2022-07-30T07:30:06.407Z,96681.03
2022-07-30T07:32:38.511Z,96675.44
2022-07-30T07:35:08.009Z,96677.81
2022-07-30T07:37:41.553Z,96707.16
2022-07-30T07:40:14.217Z,96712.34
2022-07-30T07:42:43.948Z,96630.50
2022-07-30T07:45:12.965Z,96663.09
2022-07-30T07:47:52.121Z,96661.88
2022-07-30T07:50:41.219Z,96722.09
2022-07-30T07:53:17.414Z,96675.75
2022-07-30T07:55:46.413Z,96685.06
2022-07-30T07:58:17.577Z,96666.63
2022-07-30T08:00:54.261Z,96695.31
2022-07-30T08:03:25.956Z,96684.00
2022-07-30T08:06:05.843Z,96696.59
2022-07-30T08:08:52.031Z,96704.78
2022-07-30T08:11:50.208Z,96682.28
2022-07-30T08:14:50.813Z,96686.66
2022-07-30T08:17:47.695Z,96699.47
2022-07-30T08:20:22.511Z,96706.38
2022-07-30T08:22:50.845Z,96693.13
2022-07-30T08:25:22.236Z,96716.31
2022-07-30T08:27:53.263Z,96736.06
2022-07-30T08:30:22.241Z,96762.31
2022-07-30T08:32:50.648Z,96648.41
2022-07-30T08:35:18.992Z,96746.56
2022-07-30T08:37:47.631Z,96721.63
2022-07-30T08:40:21.137Z,96704.69
2022-07-30T08:43:00.248Z,96712.13
2022-07-30T08:45:34.566Z,96729.91
2022-07-30T08:48:30.676Z,96740.97
2022-07-30T08:50:59.646Z,96688.63
2022-07-30T08:53:37.274Z,96701.34
2022-07-30T08:56:08.802Z,96732.91
2022-07-30T08:58:37.957Z,96701.16
2022-07-30T09:01:07.653Z,96733.22
2022-07-30T09:03:44.156Z,96691.16
2022-07-30T09:06:13.229Z,96723.63
2022-07-30T09:08:42.618Z,96714.28
2022-07-30T09:11:14.058Z,96721.28
2022-07-30T09:13:44.605Z,96719.75
2022-07-30T09:16:23.333Z,96691.31
2022-07-30T09:18:53.903Z,96757.59
2022-07-30T09:21:26.098Z,96682.31
2022-07-30T09:24:23.421Z,96741.53
2022-07-30T09:27:11.562Z,96719.81
2022-07-30T09:30:00.277Z,96793.22
2022-07-30T09:32:53.027Z,96744.03
2022-07-30T09:35:45.312Z,96665.09
2022-07-30T09:38:14.454Z,96620.72
2022-07-30T09:41:17.285Z,96723.69
2022-07-30T09:44:10.378Z,96737.81
2022-07-30T09:46:47.724Z,96694.66
2022-07-30T09:49:24.740Z,96717.38
2022-07-30T09:51:57.014Z,96708.31
2022-07-30T09:54:51.687Z,96713.50
2022-07-30T09:57:27.184Z,96694.16
2022-07-30T10:02:56.461Z,96707.75
2022-07-30T10:05:56.789Z,96704.41
2022-07-30T10:08:41.881Z,96681.53
2022-07-30T10:11:17.224Z,96742.56
2022-07-30T10:13:57.406Z,96741.66
2022-07-30T10:16:28.085Z,96709.94
2022-07-30T10:19:01.026Z,96701.22
2022-07-30T10:21:51.198Z,96689.25
2022-07-30T10:24:38.690Z,96722.03
2022-07-30T10:27:25.689Z,96775.84
2022-07-30T10:30:04.246Z,96712.06
2022-07-30T10:32:34.272Z,96731.25
2022-07-30T10:35:05.137Z,96699.66
2022-07-30T10:37:34.325Z,96714.75
2022-07-30T10:40:14.005Z,96748.88
2022-07-30T10:43:12.754Z,96748.22
2022-07-30T10:45:55.920Z,96742.09
2022-07-30T10:48:25.078Z,96701.59
2022-07-30T10:50:59.903Z,96721.03
2022-07-30T10:53:38.371Z,96731.94
2022-07-30T10:56:25.633Z,96730.34
2022-07-30T10:59:03.972Z,96635.31
2022-07-30T11:02:10.303Z,96707.28
2022-07-30T11:04:39.709Z,96738.75
2022-07-30T11:07:32.718Z,96694.47
2022-07-30T11:10:09.371Z,96685.88
2022-07-30T11:12:56.529Z,96701.16
2022-07-30T11:15:25.434Z,96695.84
2022-07-30T11:18:12.540Z,96731.75
2022-07-30T11:20:48.791Z,96677.44
2022-07-30T11:23:40.672Z,96723.19
2022-07-30T11:26:50.581Z,96745.00
2022-07-30T11:29:50.571Z,96671.66
2022-07-30T11:32:32.234Z,96590.75
2022-07-30T11:35:20.456Z,96691.31
2022-07-30T11:38:08.155Z,96742.31
2022-07-30T11:40:40.421Z,96694.00
2022-07-30T11:43:35.535Z,96692.69
2022-07-30T11:46:10.486Z,96663.66
2022-07-30T11:48:41.811Z,96689.25
2022-07-30T11:51:10.817Z,96705.00
2022-07-30T11:53:39.281Z,96607.16
2022-07-30T11:56:10.428Z,96674.13
2022-07-30T11:58:44.761Z,96661.63
2022-07-30T12:01:16.607Z,96685.34
2022-07-30T12:03:52.476Z,96697.75
2022-07-30T12:06:28.545Z,96696.00
2022-07-30T12:08:58.867Z,96682.31
2022-07-30T12:11:34.205Z,96648.00
2022-07-30T12:14:03.422Z,96723.34
2022-07-30T12:16:33.510Z,96733.34
2022-07-30T12:19:06.385Z,96651.50
2022-07-30T12:21:35.929Z,96678.91
2022-07-30T12:24:07.492Z,96680.56
2022-07-30T12:26:37.706Z,96639.69
2022-07-30T12:29:10.181Z,96668.28
2022-07-30T12:31:40.154Z,96687.16
2022-07-30T12:34:21.766Z,96643.25
2022-07-30T12:36:50.226Z,96684.19
2022-07-30T12:39:25.108Z,96696.25
2022-07-30T12:41:56.510Z,96710.16
2022-07-30T12:44:42.332Z,96681.69
2022-07-30T12:47:23.811Z,96644.88
2022-07-30T12:49:53.739Z,96655.75
2022-07-30T12:52:31.031Z,96620.19
2022-07-30T12:55:02.442Z,96663.91
2022-07-30T12:58:07.647Z,96646.75
2022-07-30T13:00:52.296Z,96668.63
2022-07-30T13:03:22.749Z,96658.28
2022-07-30T13:05:55.245Z,96622.00
2022-07-30T13:08:50.282Z,96566.34
2022-07-30T13:11:19.054Z,96682.97
2022-07-30T13:13:50.151Z,96711.56
2022-07-30T13:16:19.960Z,96611.66
2022-07-30T13:18:48.606Z,96682.38
2022-07-30T13:21:16.867Z,96638.72
2022-07-30T13:23:46.224Z,96661.88
2022-07-30T13:26:14.441Z,96664.97
2022-07-30T13:28:42.760Z,96673.97
2022-07-30T13:31:12.378Z,96620.00
2022-07-30T13:33:41.322Z,96638.44
2022-07-30T13:36:09.920Z,96664.13
2022-07-30T13:38:38.741Z,96623.44
2022-07-30T13:41:07.300Z,96641.78
2022-07-30T13:43:35.892Z,96623.13
2022-07-30T13:46:04.860Z,96690.81
2022-07-30T13:48:35.693Z,96643.25
2022-07-30T13:51:05.951Z,96645.28
2022-07-30T13:53:34.201Z,96587.25
2022-07-30T13:56:03.570Z,96653.63
2022-07-30T13:58:35.916Z,96635.00
2022-07-30T14:01:07.099Z,96645.31
2022-07-30T14:03:37.253Z,96640.66
2022-07-30T14:06:10.857Z,96620.78
2022-07-30T14:08:40.023Z,96609.28
2022-07-30T14:11:08.352Z,96625.91
2022-07-30T14:13:36.764Z,96615.53
2022-07-30T14:16:13.865Z,96566.88
2022-07-30T14:18:52.492Z,96614.59
2022-07-30T14:21:20.730Z,96618.53
2022-07-30T14:23:48.970Z,96649.03
2022-07-30T14:26:17.201Z,96658.06
2022-07-30T14:28:45.441Z,96429.56
2022-07-30T14:31:13.685Z,96631.69
2022-07-30T14:33:41.984Z,96629.56
2022-07-30T14:36:11.554Z,96590.50
2022-07-30T14:38:39.993Z,96630.91
2022-07-30T14:41:09.003Z,96643.50
2022-07-30T14:43:37.380Z,96590.88
2022-07-30T14:46:06.019Z,96636.88
2022-07-30T14:48:34.245Z,96623.91
2022-07-30T14:51:14.750Z,96580.84
2022-07-30T14:53:47.142Z,96581.31
2022-07-30T14:56:17.667Z,96619.28
2022-07-30T14:58:46.238Z,96601.94
2022-07-30T15:01:16.585Z,96622.00
2022-07-30T15:03:45.818Z,96598.78
2022-07-30T15:06:15.255Z,96578.94
2022-07-30T15:08:46.004Z,96629.19
2022-07-30T15:11:14.766Z,96587.19
2022-07-30T15:13:50.220Z,96542.34
2022-07-30T15:16:19.296Z,96627.50
2022-07-30T15:18:47.770Z,96603.22
2022-07-30T15:21:16.253Z,96587.00
2022-07-30T15:23:46.218Z,96632.81
2022-07-30T15:26:14.561Z,96624.38
2022-07-30T15:28:42.937Z,96598.47
2022-07-30T15:31:11.211Z,96648.28
2022-07-30T15:33:43.007Z,96604.16
2022-07-30T15:36:12.184Z,96570.63
2022-07-30T15:38:40.890Z,96580.69
2022-07-30T15:41:13.651Z,96610.69
2022-07-30T15:43:42.340Z,96604.91
2022-07-30T15:46:10.651Z,96647.00
2022-07-30T15:48:38.924Z,96626.72
2022-07-30T15:51:07.946Z,96598.66
2022-07-30T15:53:36.232Z,96654.28
2022-07-30T15:56:04.996Z,96634.56
2022-07-30T15:58:36.152Z,96574.59
2022-07-30T16:01:06.350Z,96577.72
2022-07-30T16:03:34.709Z,96606.56
2022-07-30T16:06:03.233Z,96597.69
2022-07-30T16:08:31.494Z,96580.72
2022-07-30T16:11:03.762Z,96612.00
2022-07-30T16:13:32.275Z,96591.75
2022-07-30T16:16:06.358Z,96626.34
2022-07-30T16:18:34.877Z,96588.28
2022-07-30T16:21:03.248Z,96638.56
2022-07-30T16:23:36.415Z,96649.97
2022-07-30T16:26:05.398Z,96594.16
2022-07-30T16:28:33.906Z,96614.91
2022-07-30T16:31:03.620Z,96607.03
2022-07-30T16:33:31.871Z,96613.03
2022-07-30T16:36:00.102Z,96570.41
2022-07-30T16:38:28.378Z,96569.06
2022-07-30T16:40:56.709Z,96619.91
2022-07-30T16:43:25.040Z,96618.84
2022-07-30T16:45:53.900Z,96656.41
2022-07-30T16:48:23.515Z,96663.38
2022-07-30T16:50:51.856Z,96585.72
2022-07-30T16:53:20.202Z,96589.50
2022-07-30T16:55:48.895Z,96605.44
2022-07-30T16:58:17.608Z,96633.78
2022-07-30T17:00:49.823Z,96614.09
2022-07-30T17:03:20.036Z,96606.72
2022-07-30T17:05:50.111Z,96587.56
2022-07-30T17:08:18.497Z,96617.50
2022-07-30T17:10:47.836Z,96459.84
2022-07-30T17:13:17.226Z,96626.38
2022-07-30T17:15:46.833Z,96608.75
2022-07-30T17:18:15.406Z,96628.97
2022-07-30T17:20:44.022Z,96605.13
2022-07-30T17:23:13.960Z,96635.31
2022-07-30T17:25:42.252Z,96614.19
2022-07-30T17:28:10.600Z,96629.22
2022-07-30T17:30:39.041Z,96609.09
2022-07-30T17:33:07.362Z,96614.22
2022-07-30T17:35:35.689Z,96646.09
2022-07-30T17:38:04.011Z,96638.59
2022-07-30T17:40:33.764Z,96616.78
2022-07-30T17:43:04.696Z,96635.81
2022-07-30T17:45:34.669Z,96632.81
2022-07-30T17:48:07.051Z,96653.97
2022-07-30T17:50:36.650Z,96610.09
2022-07-30T17:53:06.148Z,96690.53
2022-07-30T17:55:35.796Z,96636.00
2022-07-30T17:58:04.836Z,96679.13
2022-07-30T18:00:34.819Z,96618.13
2022-07-30T18:03:09.173Z,96638.25
2022-07-30T18:05:37.451Z,96659.91
2022-07-30T18:08:06.050Z,96649.50
2022-07-30T18:10:35.691Z,96640.84
2022-07-30T18:13:25.830Z,96644.88
2022-07-30T18:15:52.751Z,96627.44
2022-07-30T18:18:21.138Z,96631.75
2022-07-30T18:20:49.360Z,96633.97
2022-07-30T18:23:19.250Z,96622.56
2022-07-30T18:25:51.920Z,96670.59
2022-07-30T18:28:22.572Z,96684.63
2022-07-30T18:30:51.331Z,96650.06
2022-07-30T18:33:19.650Z,96707.13
2022-07-30T18:35:48.520Z,96634.31
2022-07-30T18:38:16.884Z,96639.03
2022-07-30T18:40:57.494Z,96601.31
2022-07-30T18:43:28.084Z,96654.66
2022-07-30T18:45:57.448Z,96675.78
2022-07-30T18:48:26.372Z,96617.28
2022-07-30T18:50:55.040Z,96717.16
2022-07-30T18:53:23.280Z,96693.50
2022-07-30T18:55:51.872Z,96661.44
2022-07-30T18:58:20.094Z,96690.06
2022-07-30T19:00:50.002Z,96692.13
2022-07-30T19:03:22.871Z,96705.88
2022-07-30T19:05:51.564Z,96661.31
2022-07-30T19:08:19.807Z,96684.44
2022-07-30T19:10:48.622Z,96665.31
2022-07-30T19:13:16.851Z,96718.50
2022-07-30T19:15:45.176Z,96656.50
2022-07-30T19:18:15.311Z,96716.69
2022-07-30T19:20:44.468Z,96732.78
2022-07-30T19:23:13.675Z,96698.53
2022-07-30T19:25:47.014Z,96642.00
2022-07-30T19:28:17.810Z,96705.03
2022-07-30T19:30:46.150Z,96707.56
2022-07-30T19:33:16.047Z,96713.63
2022-07-30T19:35:45.069Z,96706.91
2022-07-30T19:38:21.625Z,96719.50
2022-07-30T19:40:50.492Z,96735.13
2022-07-30T19:43:24.116Z,96782.22
2022-07-30T19:45:53.221Z,96747.91
2022-07-30T19:48:28.410Z,96780.47
2022-07-30T19:50:58.709Z,96678.59
2022-07-30T19:53:27.977Z,96761.56
2022-07-30T19:56:01.733Z,96751.31
2022-07-30T19:58:31.716Z,96736.03
2022-07-30T20:01:01.284Z,96779.09
2022-07-30T20:03:32.117Z,96765.81
2022-07-30T20:06:07.286Z,96784.63
2022-07-30T20:08:35.995Z,96789.72
2022-07-30T20:11:07.002Z,96781.16
2022-07-30T20:13:43.908Z,96794.44
2022-07-30T20:16:12.888Z,96793.41
2022-07-30T20:18:44.464Z,96726.56
2022-07-30T20:21:15.610Z,96737.38
2022-07-30T20:23:44.645Z,96791.34
2022-07-30T20:26:14.813Z,96795.06
2022-07-30T20:28:47.681Z,96756.41
2022-07-30T20:31:21.330Z,96743.34
2022-07-30T20:33:51.383Z,96752.78
2022-07-30T20:36:22.290Z,96756.28
2022-07-30T20:38:52.435Z,96646.91
2022-07-30T20:41:21.627Z,96800.88
2022-07-30T20:43:52.467Z,96617.63
2022-07-30T20:46:23.875Z,96799.38
2022-07-30T20:48:53.730Z,96813.38
2022-07-30T20:51:33.504Z,96789.84
2022-07-30T20:54:02.433Z,96893.06
2022-07-30T20:56:30.976Z,96820.53
2022-07-30T20:58:59.164Z,96818.09
2022-07-30T21:01:28.457Z,96778.88
2022-07-30T21:04:00.418Z,96808.72
2022-07-30T21:06:28.663Z,96779.59
2022-07-30T21:08:57.446Z,96684.41
2022-07-30T21:11:26.558Z,96794.31
2022-07-30T21:13:55.077Z,96736.56
2022-07-30T21:16:25.360Z,96758.84
2022-07-30T21:18:53.567Z,96789.75
2022-07-30T21:21:32.828Z,96771.84
2022-07-30T21:24:12.315Z,96816.09
2022-07-30T21:26:41.545Z,96800.63
2022-07-30T21:29:10.521Z,96815.88
2022-07-30T21:32:02.332Z,96791.28
2022-07-30T21:34:30.831Z,96792.72
2022-07-30T21:37:05.349Z,96818.78
2022-07-30T21:39:39.922Z,96840.56
2022-07-30T21:42:09.030Z,96830.19
2022-07-30T21:44:38.272Z,96794.41
2022-07-30T21:47:10.775Z,96766.91
2022-07-30T21:49:39.875Z,96793.66
2022-07-30T21:52:09.743Z,96822.50
2022-07-30T21:54:45.363Z,96786.78
2022-07-30T21:57:26.505Z,96784.16
2022-07-30T21:59:58.553Z,96457.97
2022-07-30T22:02:28.070Z,96824.19
2022-07-30T22:04:56.594Z,96805.66
2022-07-30T22:07:28.685Z,96851.09
2022-07-30T22:09:56.922Z,96833.31
2022-07-30T22:12:25.930Z,96830.03
2022-07-30T22:14:57.600Z,96785.38
2022-07-30T22:17:36.599Z,96795.81
2022-07-30T22:20:08.580Z,96821.06
2022-07-30T22:22:38.715Z,96819.84
2022-07-30T22:25:10.111Z,96788.25
2022-07-30T22:27:39.475Z,96852.72
2022-07-30T22:30:10.183Z,96853.94
2022-07-30T22:32:42.917Z,96769.47
2022-07-30T22:35:11.897Z,96915.41
2022-07-30T22:37:46.281Z,96842.44
2022-07-30T22:40:16.195Z,96800.25
2022-07-30T22:42:46.865Z,96815.81
2022-07-30T22:45:35.269Z,96715.84
2022-07-30T22:48:11.084Z,96791.59
2022-07-30T22:50:40.004Z,96806.75
2022-07-30T22:53:56.725Z,96855.16
2022-07-30T22:55:59.444Z,96774.41
2022-07-30T22:58:28.796Z,96810.03
2022-07-30T23:00:57.957Z,96818.44
2022-07-30T23:03:26.173Z,96837.88
2022-07-30T23:05:56.591Z,96803.47
2022-07-30T23:08:29.696Z,96809.63
2022-07-30T23:10:59.853Z,96769.09
2022-07-30T23:13:28.864Z,96798.38
2022-07-30T23:15:57.334Z,96828.06
2022-07-30T23:18:25.544Z,96797.34
2022-07-30T23:20:59.895Z,96781.34
2022-07-30T23:23:30.781Z,96800.22
2022-07-30T23:26:03.096Z,96792.81
2022-07-30T23:28:31.501Z,96728.13
2022-07-30T23:31:00.192Z,96790.38
2022-07-30T23:33:28.705Z,96791.59
2022-07-30T23:35:57.003Z,96803.91
2022-07-30T23:38:25.657Z,96820.69
2022-07-30T23:40:55.505Z,96788.56
2022-07-30T23:43:24.461Z,96791.22
2022-07-30T23:45:52.705Z,96813.72
2022-07-30T23:48:20.919Z,96791.22
2022-07-30T23:50:49.625Z,96604.81
2022-07-30T23:53:17.892Z,96783.63
2022-07-30T23:55:49.944Z,96752.88
2022-07-30T23:58:19.660Z,96783.41
